sensor_id;sensor_type;location;lat;lon;timestamp;P1;durP1;ratioP1;P2;durP2;ratioP2
739;SDS011;354;42.694;23.336;2024-03-17T00:01:04;7.97;;;7.40;;
739;SDS011;354;42.694;23.336;2024-03-17T00:03:30;7.40;;;6.70;;
739;SDS011;354;42.694;23.336;2024-03-17T00:05:59;8.73;;;8.03;;
739;SDS011;354;42.694;23.336;2024-03-17T00:08:26;9.27;;;8.57;;
739;SDS011;354;42.694;23.336;2024-03-17T00:10:54;7.87;;;7.27;;
739;SDS011;354;42.694;23.336;2024-03-17T00:13:20;8.50;;;7.90;;
739;SDS011;354;42.694;23.336;2024-03-17T00:15:46;7.70;;;7.00;;
739;SDS011;354;42.694;23.336;2024-03-17T00:18:12;8.83;;;8.20;;
739;SDS011;354;42.694;23.336;2024-03-17T00:20:38;8.87;;;8.03;;
739;SDS011;354;42.694;23.336;2024-03-17T00:23:06;7.60;;;7.00;;
739;SDS011;354;42.694;23.336;2024-03-17T00:25:33;7.73;;;7.23;;
739;SDS011;354;42.694;23.336;2024-03-17T00:28:01;8.47;;;7.93;;
739;SDS011;354;42.694;23.336;2024-03-17T00:30:28;8.67;;;7.80;;
739;SDS011;354;42.694;23.336;2024-03-17T00:32:53;9.23;;;8.43;;
739;SDS011;354;42.694;23.336;2024-03-17T00:35:19;9.93;;;8.40;;
739;SDS011;354;42.694;23.336;2024-03-17T00:37:47;7.00;;;6.53;;
739;SDS011;354;42.694;23.336;2024-03-17T00:40:14;8.87;;;7.20;;
739;SDS011;354;42.694;23.336;2024-03-17T00:42:39;11.57;;;7.77;;
739;SDS011;354;42.694;23.336;2024-03-17T00:45:06;8.77;;;8.13;;
739;SDS011;354;42.694;23.336;2024-03-17T00:47:32;8.43;;;7.73;;
739;SDS011;354;42.694;23.336;2024-03-17T00:49:57;8.83;;;7.97;;
739;SDS011;354;42.694;23.336;2024-03-17T00:52:23;8.50;;;7.63;;
739;SDS011;354;42.694;23.336;2024-03-17T00:54:48;8.93;;;8.23;;
739;SDS011;354;42.694;23.336;2024-03-17T00:57:17;7.77;;;7.20;;
739;SDS011;354;42.694;23.336;2024-03-17T00:59:42;7.93;;;7.37;;
739;SDS011;354;42.694;23.336;2024-03-17T01:02:09;8.53;;;7.93;;
739;SDS011;354;42.694;23.336;2024-03-17T01:04:37;8.07;;;7.57;;
739;SDS011;354;42.694;23.336;2024-03-17T01:07:02;12.43;;;11.23;;
739;SDS011;354;42.694;23.336;2024-03-17T01:09:28;13.20;;;11.27;;
739;SDS011;354;42.694;23.336;2024-03-17T01:11:53;12.23;;;11.03;;
739;SDS011;354;42.694;23.336;2024-03-17T01:14:18;9.43;;;8.67;;
739;SDS011;354;42.694;23.336;2024-03-17T01:16:44;10.70;;;9.70;;
739;SDS011;354;42.694;23.336;2024-03-17T01:19:09;12.00;;;9.33;;
739;SDS011;354;42.694;23.336;2024-03-17T01:21:35;12.27;;;11.20;;
739;SDS011;354;42.694;23.336;2024-03-17T01:24:00;13.50;;;10.73;;
739;SDS011;354;42.694;23.336;2024-03-17T01:26:26;10.97;;;9.87;;
739;SDS011;354;42.694;23.336;2024-03-17T01:28:51;10.87;;;9.80;;
739;SDS011;354;42.694;23.336;2024-03-17T01:31:17;13.03;;;10.50;;
739;SDS011;354;42.694;23.336;2024-03-17T01:33:42;10.60;;;9.60;;
739;SDS011;354;42.694;23.336;2024-03-17T01:36:07;9.80;;;9.00;;
739;SDS011;354;42.694;23.336;2024-03-17T01:38:33;10.90;;;9.90;;
739;SDS011;354;42.694;23.336;2024-03-17T01:40:58;9.43;;;8.63;;
739;SDS011;354;42.694;23.336;2024-03-17T01:43:24;10.37;;;9.60;;
739;SDS011;354;42.694;23.336;2024-03-17T01:45:49;10.83;;;9.77;;
739;SDS011;354;42.694;23.336;2024-03-17T01:48:15;12.17;;;10.20;;
739;SDS011;354;42.694;23.336;2024-03-17T01:50:44;11.40;;;10.40;;
739;SDS011;354;42.694;23.336;2024-03-17T01:53:11;10.17;;;9.37;;
739;SDS011;354;42.694;23.336;2024-03-17T01:55:38;11.47;;;9.17;;
739;SDS011;354;42.694;23.336;2024-03-17T01:58:07;10.37;;;9.50;;
739;SDS011;354;42.694;23.336;2024-03-17T02:00:33;10.60;;;9.90;;
739;SDS011;354;42.694;23.336;2024-03-17T02:03:01;9.67;;;8.60;;
739;SDS011;354;42.694;23.336;2024-03-17T02:05:28;10.63;;;8.73;;
739;SDS011;354;42.694;23.336;2024-03-17T02:07:54;9.83;;;9.00;;
739;SDS011;354;42.694;23.336;2024-03-17T02:10:19;11.23;;;9.07;;
739;SDS011;354;42.694;23.336;2024-03-17T02:12:44;11.37;;;10.37;;
739;SDS011;354;42.694;23.336;2024-03-17T02:15:10;11.40;;;10.40;;
739;SDS011;354;42.694;23.336;2024-03-17T02:17:36;9.60;;;8.70;;
739;SDS011;354;42.694;23.336;2024-03-17T02:20:01;9.97;;;9.17;;
739;SDS011;354;42.694;23.336;2024-03-17T02:22:32;12.03;;;10.20;;
739;SDS011;354;42.694;23.336;2024-03-17T02:24:59;10.97;;;10.00;;
739;SDS011;354;42.694;23.336;2024-03-17T02:27:25;10.13;;;9.33;;
739;SDS011;354;42.694;23.336;2024-03-17T02:29:50;10.83;;;10.03;;
739;SDS011;354;42.694;23.336;2024-03-17T02:32:16;11.37;;;10.47;;
739;SDS011;354;42.694;23.336;2024-03-17T02:34:42;11.73;;;10.73;;
739;SDS011;354;42.694;23.336;2024-03-17T02:37:09;10.00;;;9.23;;
739;SDS011;354;42.694;23.336;2024-03-17T02:39:35;11.10;;;10.37;;
739;SDS011;354;42.694;23.336;2024-03-17T02:42:04;12.83;;;11.63;;
739;SDS011;354;42.694;23.336;2024-03-17T02:44:31;9.00;;;8.10;;
739;SDS011;354;42.694;23.336;2024-03-17T02:47:01;10.10;;;9.40;;
739;SDS011;354;42.694;23.336;2024-03-17T02:49:29;9.97;;;9.17;;
739;SDS011;354;42.694;23.336;2024-03-17T02:52:15;11.33;;;10.23;;
739;SDS011;354;42.694;23.336;2024-03-17T02:54:40;10.37;;;9.73;;
739;SDS011;354;42.694;23.336;2024-03-17T02:57:06;10.97;;;10.07;;
739;SDS011;354;42.694;23.336;2024-03-17T02:59:32;11.73;;;10.67;;
739;SDS011;354;42.694;23.336;2024-03-17T03:01:58;11.60;;;10.67;;
739;SDS011;354;42.694;23.336;2024-03-17T03:04:24;10.03;;;9.17;;
739;SDS011;354;42.694;23.336;2024-03-17T03:06:50;12.83;;;11.37;;
739;SDS011;354;42.694;23.336;2024-03-17T03:09:15;11.27;;;10.37;;
739;SDS011;354;42.694;23.336;2024-03-17T03:11:46;10.13;;;9.43;;
739;SDS011;354;42.694;23.336;2024-03-17T03:14:12;13.93;;;11.00;;
739;SDS011;354;42.694;23.336;2024-03-17T03:16:38;10.17;;;9.33;;
739;SDS011;354;42.694;23.336;2024-03-17T03:19:04;10.63;;;9.77;;
739;SDS011;354;42.694;23.336;2024-03-17T03:21:30;10.17;;;9.37;;
739;SDS011;354;42.694;23.336;2024-03-17T03:23:56;11.83;;;10.60;;
739;SDS011;354;42.694;23.336;2024-03-17T03:26:22;9.93;;;9.03;;
739;SDS011;354;42.694;23.336;2024-03-17T03:28:48;11.07;;;10.07;;
739;SDS011;354;42.694;23.336;2024-03-17T03:31:15;11.73;;;10.70;;
739;SDS011;354;42.694;23.336;2024-03-17T03:33:40;10.90;;;10.00;;
739;SDS011;354;42.694;23.336;2024-03-17T03:38:36;13.30;;;10.70;;
739;SDS011;354;42.694;23.336;2024-03-17T03:43:33;11.80;;;10.63;;
739;SDS011;354;42.694;23.336;2024-03-17T03:45:59;10.30;;;9.50;;
739;SDS011;354;42.694;23.336;2024-03-17T03:48:25;11.00;;;9.93;;
739;SDS011;354;42.694;23.336;2024-03-17T03:50:50;11.53;;;10.57;;
739;SDS011;354;42.694;23.336;2024-03-17T03:53:16;9.70;;;8.87;;
739;SDS011;354;42.694;23.336;2024-03-17T03:55:41;10.80;;;8.97;;
739;SDS011;354;42.694;23.336;2024-03-17T03:58:07;10.83;;;9.83;;
739;SDS011;354;42.694;23.336;2024-03-17T04:00:32;12.80;;;11.60;;
739;SDS011;354;42.694;23.336;2024-03-17T04:02:58;13.43;;;12.23;;
739;SDS011;354;42.694;23.336;2024-03-17T04:05:24;13.53;;;10.13;;
739;SDS011;354;42.694;23.336;2024-03-17T04:07:50;11.80;;;10.97;;
739;SDS011;354;42.694;23.336;2024-03-17T04:10:15;11.67;;;10.57;;
739;SDS011;354;42.694;23.336;2024-03-17T04:12:44;12.17;;;11.13;;
739;SDS011;354;42.694;23.336;2024-03-17T04:15:09;10.83;;;10.10;;
739;SDS011;354;42.694;23.336;2024-03-17T04:17:35;12.23;;;10.93;;
739;SDS011;354;42.694;23.336;2024-03-17T04:20:02;12.70;;;10.47;;
739;SDS011;354;42.694;23.336;2024-03-17T04:22:30;11.90;;;11.00;;
739;SDS011;354;42.694;23.336;2024-03-17T04:24:55;10.90;;;10.17;;
739;SDS011;354;42.694;23.336;2024-03-17T04:27:25;13.50;;;12.17;;
739;SDS011;354;42.694;23.336;2024-03-17T04:29:53;14.27;;;10.00;;
739;SDS011;354;42.694;23.336;2024-03-17T04:32:20;11.73;;;10.60;;
739;SDS011;354;42.694;23.336;2024-03-17T04:34:46;10.53;;;9.57;;
739;SDS011;354;42.694;23.336;2024-03-17T04:37:14;13.10;;;11.10;;
739;SDS011;354;42.694;23.336;2024-03-17T04:39:40;12.27;;;11.30;;
739;SDS011;354;42.694;23.336;2024-03-17T04:42:08;10.90;;;10.00;;
739;SDS011;354;42.694;23.336;2024-03-17T04:44:33;11.73;;;10.60;;
739;SDS011;354;42.694;23.336;2024-03-17T04:46:59;12.50;;;10.37;;
739;SDS011;354;42.694;23.336;2024-03-17T04:49:24;9.93;;;9.03;;
739;SDS011;354;42.694;23.336;2024-03-17T04:51:50;13.67;;;11.53;;
739;SDS011;354;42.694;23.336;2024-03-17T04:54:15;12.50;;;11.40;;
739;SDS011;354;42.694;23.336;2024-03-17T04:56:41;11.97;;;10.60;;
739;SDS011;354;42.694;23.336;2024-03-17T04:59:06;11.83;;;9.63;;
739;SDS011;354;42.694;23.336;2024-03-17T05:01:32;10.93;;;10.03;;
739;SDS011;354;42.694;23.336;2024-03-17T05:04:01;9.80;;;8.73;;
739;SDS011;354;42.694;23.336;2024-03-17T05:06:28;11.47;;;10.60;;
739;SDS011;354;42.694;23.336;2024-03-17T05:08:53;12.17;;;11.10;;
739;SDS011;354;42.694;23.336;2024-03-17T05:11:19;11.97;;;11.00;;
739;SDS011;354;42.694;23.336;2024-03-17T05:13:45;10.33;;;9.53;;
739;SDS011;354;42.694;23.336;2024-03-17T05:16:10;13.80;;;12.60;;
739;SDS011;354;42.694;23.336;2024-03-17T05:18:36;12.23;;;11.03;;
739;SDS011;354;42.694;23.336;2024-03-17T05:21:04;11.10;;;10.10;;
739;SDS011;354;42.694;23.336;2024-03-17T05:23:32;12.67;;;11.57;;
739;SDS011;354;42.694;23.336;2024-03-17T05:26:01;12.50;;;11.30;;
739;SDS011;354;42.694;23.336;2024-03-17T05:28:29;12.97;;;9.40;;
739;SDS011;354;42.694;23.336;2024-03-17T05:30:55;11.63;;;10.53;;
739;SDS011;354;42.694;23.336;2024-03-17T05:33:22;10.53;;;9.63;;
739;SDS011;354;42.694;23.336;2024-03-17T05:35:52;11.90;;;10.80;;
739;SDS011;354;42.694;23.336;2024-03-17T05:38:22;10.43;;;9.63;;
739;SDS011;354;42.694;23.336;2024-03-17T05:41:04;12.27;;;10.93;;
739;SDS011;354;42.694;23.336;2024-03-17T05:43:37;12.07;;;10.50;;
739;SDS011;354;42.694;23.336;2024-03-17T05:46:04;8.70;;;8.00;;
739;SDS011;354;42.694;23.336;2024-03-17T05:48:34;9.80;;;8.80;;
739;SDS011;354;42.694;23.336;2024-03-17T05:51:03;9.20;;;8.40;;
739;SDS011;354;42.694;23.336;2024-03-17T05:53:29;9.30;;;8.40;;
739;SDS011;354;42.694;23.336;2024-03-17T05:55:58;8.57;;;7.87;;
739;SDS011;354;42.694;23.336;2024-03-17T05:58:24;9.87;;;9.07;;
739;SDS011;354;42.694;23.336;2024-03-17T06:00:49;8.40;;;7.80;;
739;SDS011;354;42.694;23.336;2024-03-17T06:03:15;10.57;;;9.67;;
739;SDS011;354;42.694;23.336;2024-03-17T06:05:40;9.80;;;8.90;;
739;SDS011;354;42.694;23.336;2024-03-17T06:08:05;7.60;;;6.90;;
739;SDS011;354;42.694;23.336;2024-03-17T06:10:34;7.90;;;7.17;;
739;SDS011;354;42.694;23.336;2024-03-17T06:13:00;8.50;;;7.83;;
739;SDS011;354;42.694;23.336;2024-03-17T06:15:26;8.13;;;7.43;;
739;SDS011;354;42.694;23.336;2024-03-17T06:17:52;8.37;;;7.67;;
739;SDS011;354;42.694;23.336;2024-03-17T06:20:19;10.80;;;9.77;;
739;SDS011;354;42.694;23.336;2024-03-17T06:22:49;7.30;;;6.60;;
739;SDS011;354;42.694;23.336;2024-03-17T06:25:15;7.50;;;6.97;;
739;SDS011;354;42.694;23.336;2024-03-17T06:27:40;8.17;;;7.47;;
739;SDS011;354;42.694;23.336;2024-03-17T06:30:10;6.67;;;6.17;;
739;SDS011;354;42.694;23.336;2024-03-17T06:32:38;11.17;;;10.13;;
739;SDS011;354;42.694;23.336;2024-03-17T06:35:11;8.47;;;7.73;;
739;SDS011;354;42.694;23.336;2024-03-17T06:37:37;8.83;;;8.23;;
739;SDS011;354;42.694;23.336;2024-03-17T06:40:03;8.43;;;7.67;;
739;SDS011;354;42.694;23.336;2024-03-17T06:42:30;8.53;;;7.87;;
739;SDS011;354;42.694;23.336;2024-03-17T06:44:56;8.67;;;7.77;;
739;SDS011;354;42.694;23.336;2024-03-17T06:47:21;7.90;;;7.23;;
739;SDS011;354;42.694;23.336;2024-03-17T06:49:46;10.03;;;7.30;;
739;SDS011;354;42.694;23.336;2024-03-17T06:52:12;7.80;;;7.20;;
739;SDS011;354;42.694;23.336;2024-03-17T06:54:37;8.57;;;7.90;;
739;SDS011;354;42.694;23.336;2024-03-17T06:57:04;8.33;;;7.57;;
739;SDS011;354;42.694;23.336;2024-03-17T06:59:32;12.77;;;9.33;;
739;SDS011;354;42.694;23.336;2024-03-17T07:01:58;8.80;;;8.00;;
739;SDS011;354;42.694;23.336;2024-03-17T07:04:23;8.37;;;7.77;;
739;SDS011;354;42.694;23.336;2024-03-17T07:06:49;7.77;;;7.07;;
739;SDS011;354;42.694;23.336;2024-03-17T07:09:15;10.00;;;9.20;;
739;SDS011;354;42.694;23.336;2024-03-17T07:11:42;8.60;;;7.83;;
739;SDS011;354;42.694;23.336;2024-03-17T07:14:08;8.63;;;7.83;;
739;SDS011;354;42.694;23.336;2024-03-17T07:16:34;8.70;;;7.80;;
739;SDS011;354;42.694;23.336;2024-03-17T07:19:01;9.07;;;8.20;;
739;SDS011;354;42.694;23.336;2024-03-17T07:21:27;7.63;;;6.93;;
739;SDS011;354;42.694;23.336;2024-03-17T07:23:52;7.90;;;6.37;;
739;SDS011;354;42.694;23.336;2024-03-17T07:26:18;8.33;;;7.53;;
739;SDS011;354;42.694;23.336;2024-03-17T07:28:43;8.70;;;8.03;;
739;SDS011;354;42.694;23.336;2024-03-17T07:31:10;10.67;;;7.07;;
739;SDS011;354;42.694;23.336;2024-03-17T07:33:35;8.10;;;7.37;;
739;SDS011;354;42.694;23.336;2024-03-17T07:36:01;7.67;;;7.07;;
739;SDS011;354;42.694;23.336;2024-03-17T07:38:28;9.00;;;8.10;;
739;SDS011;354;42.694;23.336;2024-03-17T07:43:30;8.43;;;7.73;;
739;SDS011;354;42.694;23.336;2024-03-17T07:46:03;7.47;;;6.87;;
739;SDS011;354;42.694;23.336;2024-03-17T07:48:29;7.97;;;7.40;;
739;SDS011;354;42.694;23.336;2024-03-17T07:53:29;7.93;;;7.40;;
739;SDS011;354;42.694;23.336;2024-03-17T07:58:31;7.00;;;6.47;;
739;SDS011;354;42.694;23.336;2024-03-17T08:00:58;9.60;;;8.67;;
739;SDS011;354;42.694;23.336;2024-03-17T08:03:25;5.87;;;5.57;;
739;SDS011;354;42.694;23.336;2024-03-17T08:05:54;7.87;;;7.37;;
739;SDS011;354;42.694;23.336;2024-03-17T08:08:20;7.63;;;6.97;;
739;SDS011;354;42.694;23.336;2024-03-17T08:10:46;7.13;;;6.73;;
739;SDS011;354;42.694;23.336;2024-03-17T08:13:13;6.80;;;6.27;;
739;SDS011;354;42.694;23.336;2024-03-17T08:15:41;6.80;;;6.40;;
739;SDS011;354;42.694;23.336;2024-03-17T08:18:13;7.63;;;7.03;;
739;SDS011;354;42.694;23.336;2024-03-17T08:20:38;6.90;;;6.50;;
739;SDS011;354;42.694;23.336;2024-03-17T08:23:05;6.00;;;5.60;;
739;SDS011;354;42.694;23.336;2024-03-17T08:25:31;7.00;;;6.50;;
739;SDS011;354;42.694;23.336;2024-03-17T08:28:00;8.03;;;7.43;;
739;SDS011;354;42.694;23.336;2024-03-17T08:30:28;8.13;;;7.33;;
739;SDS011;354;42.694;23.336;2024-03-17T08:32:55;8.07;;;7.27;;
739;SDS011;354;42.694;23.336;2024-03-17T08:35:21;6.50;;;6.10;;
739;SDS011;354;42.694;23.336;2024-03-17T08:37:47;7.37;;;6.87;;
739;SDS011;354;42.694;23.336;2024-03-17T08:40:12;7.27;;;6.50;;
739;SDS011;354;42.694;23.336;2024-03-17T08:42:39;7.90;;;7.23;;
739;SDS011;354;42.694;23.336;2024-03-17T08:45:04;8.10;;;7.40;;
739;SDS011;354;42.694;23.336;2024-03-17T08:47:30;7.97;;;7.27;;
739;SDS011;354;42.694;23.336;2024-03-17T08:49:55;9.00;;;8.30;;
739;SDS011;354;42.694;23.336;2024-03-17T08:52:21;7.97;;;7.10;;
739;SDS011;354;42.694;23.336;2024-03-17T08:54:46;7.10;;;6.60;;
739;SDS011;354;42.694;23.336;2024-03-17T08:57:16;7.33;;;6.60;;
739;SDS011;354;42.694;23.336;2024-03-17T08:59:42;7.03;;;6.50;;
739;SDS011;354;42.694;23.336;2024-03-17T09:02:11;7.80;;;7.03;;
739;SDS011;354;42.694;23.336;2024-03-17T09:04:39;8.33;;;7.73;;
739;SDS011;354;42.694;23.336;2024-03-17T09:07:05;7.87;;;7.30;;
739;SDS011;354;42.694;23.336;2024-03-17T09:09:30;8.20;;;7.50;;
739;SDS011;354;42.694;23.336;2024-03-17T09:11:56;8.03;;;7.23;;
739;SDS011;354;42.694;23.336;2024-03-17T09:14:21;7.73;;;7.03;;
739;SDS011;354;42.694;23.336;2024-03-17T09:16:47;8.37;;;7.47;;
739;SDS011;354;42.694;23.336;2024-03-17T09:19:13;7.63;;;6.90;;
739;SDS011;354;42.694;23.336;2024-03-17T09:21:38;7.47;;;6.90;;
739;SDS011;354;42.694;23.336;2024-03-17T09:24:05;8.30;;;7.53;;
739;SDS011;354;42.694;23.336;2024-03-17T09:26:32;7.77;;;7.13;;
739;SDS011;354;42.694;23.336;2024-03-17T09:28:59;8.17;;;7.17;;
739;SDS011;354;42.694;23.336;2024-03-17T09:31:24;8.73;;;7.93;;
739;SDS011;354;42.694;23.336;2024-03-17T09:33:50;7.47;;;6.80;;
739;SDS011;354;42.694;23.336;2024-03-17T09:36:15;8.70;;;7.83;;
739;SDS011;354;42.694;23.336;2024-03-17T09:38:41;7.40;;;6.70;;
739;SDS011;354;42.694;23.336;2024-03-17T09:41:06;9.90;;;8.90;;
739;SDS011;354;42.694;23.336;2024-03-17T09:43:32;8.07;;;7.27;;
739;SDS011;354;42.694;23.336;2024-03-17T09:46:01;7.73;;;7.03;;
739;SDS011;354;42.694;23.336;2024-03-17T09:48:28;7.63;;;6.93;;
739;SDS011;354;42.694;23.336;2024-03-17T09:51:00;7.17;;;6.57;;
739;SDS011;354;42.694;23.336;2024-03-17T09:53:27;7.07;;;6.47;;
739;SDS011;354;42.694;23.336;2024-03-17T09:55:58;6.17;;;5.60;;
739;SDS011;354;42.694;23.336;2024-03-17T09:58:29;6.47;;;6.07;;
739;SDS011;354;42.694;23.336;2024-03-17T10:00:54;6.67;;;6.07;;
739;SDS011;354;42.694;23.336;2024-03-17T10:03:39;4.87;;;4.67;;
739;SDS011;354;42.694;23.336;2024-03-17T10:06:12;5.80;;;5.43;;
739;SDS011;354;42.694;23.336;2024-03-17T10:08:41;5.37;;;5.00;;
739;SDS011;354;42.694;23.336;2024-03-17T10:11:11;6.60;;;6.20;;
739;SDS011;354;42.694;23.336;2024-03-17T10:14:09;5.17;;;4.77;;
739;SDS011;354;42.694;23.336;2024-03-17T10:16:37;6.07;;;5.73;;
739;SDS011;354;42.694;23.336;2024-03-17T10:19:22;7.30;;;6.73;;
739;SDS011;354;42.694;23.336;2024-03-17T10:21:48;5.20;;;4.70;;
739;SDS011;354;42.694;23.336;2024-03-17T10:26:53;6.57;;;6.17;;
739;SDS011;354;42.694;23.336;2024-03-17T10:31:54;6.53;;;6.03;;
739;SDS011;354;42.694;23.336;2024-03-17T10:34:20;6.17;;;5.70;;
739;SDS011;354;42.694;23.336;2024-03-17T10:36:50;5.23;;;4.93;;
739;SDS011;354;42.694;23.336;2024-03-17T10:39:38;5.53;;;5.23;;
739;SDS011;354;42.694;23.336;2024-03-17T10:42:08;5.03;;;4.73;;
739;SDS011;354;42.694;23.336;2024-03-17T10:44:36;5.20;;;4.90;;
739;SDS011;354;42.694;23.336;2024-03-17T10:47:03;4.90;;;4.57;;
739;SDS011;354;42.694;23.336;2024-03-17T10:49:35;4.37;;;4.17;;
739;SDS011;354;42.694;23.336;2024-03-17T10:52:06;4.63;;;4.43;;
739;SDS011;354;42.694;23.336;2024-03-17T10:54:40;5.17;;;4.73;;
739;SDS011;354;42.694;23.336;2024-03-17T11:00:04;5.07;;;4.77;;
739;SDS011;354;42.694;23.336;2024-03-17T11:02:33;4.50;;;4.10;;
739;SDS011;354;42.694;23.336;2024-03-17T11:07:56;4.13;;;3.93;;
739;SDS011;354;42.694;23.336;2024-03-17T11:10:30;4.53;;;4.23;;
739;SDS011;354;42.694;23.336;2024-03-17T11:13:00;4.80;;;4.50;;
739;SDS011;354;42.694;23.336;2024-03-17T11:20:33;5.23;;;4.83;;
739;SDS011;354;42.694;23.336;2024-03-17T11:23:01;5.60;;;5.20;;
739;SDS011;354;42.694;23.336;2024-03-17T11:27:55;5.70;;;5.20;;
739;SDS011;354;42.694;23.336;2024-03-17T11:41:46;5.43;;;5.13;;
739;SDS011;354;42.694;23.336;2024-03-17T11:46:38;4.80;;;4.50;;
739;SDS011;354;42.694;23.336;2024-03-17T11:49:04;5.77;;;5.37;;
739;SDS011;354;42.694;23.336;2024-03-17T11:51:29;5.03;;;4.72;;
739;SDS011;354;42.694;23.336;2024-03-17T11:53:57;4.72;;;4.53;;
739;SDS011;354;42.694;23.336;2024-03-17T11:56:24;5.22;;;4.93;;
739;SDS011;354;42.694;23.336;2024-03-17T11:59:03;4.80;;;4.50;;
739;SDS011;354;42.694;23.336;2024-03-17T12:01:29;6.03;;;5.55;;
739;SDS011;354;42.694;23.336;2024-03-17T12:03:55;3.90;;;3.70;;
739;SDS011;354;42.694;23.336;2024-03-17T12:06:22;5.00;;;4.70;;
739;SDS011;354;42.694;23.336;2024-03-17T12:08:49;5.80;;;4.90;;
739;SDS011;354;42.694;23.336;2024-03-17T12:11:16;5.07;;;4.77;;
739;SDS011;354;42.694;23.336;2024-03-17T12:13:43;5.20;;;4.90;;
739;SDS011;354;42.694;23.336;2024-03-17T12:16:12;4.80;;;4.50;;
739;SDS011;354;42.694;23.336;2024-03-17T12:18:38;5.43;;;5.03;;
739;SDS011;354;42.694;23.336;2024-03-17T12:21:10;5.23;;;4.93;;
739;SDS011;354;42.694;23.336;2024-03-17T12:23:39;6.00;;;5.60;;
739;SDS011;354;42.694;23.336;2024-03-17T12:26:05;5.80;;;5.40;;
739;SDS011;354;42.694;23.336;2024-03-17T12:28:40;4.73;;;4.43;;
739;SDS011;354;42.694;23.336;2024-03-17T12:31:05;5.40;;;5.10;;
739;SDS011;354;42.694;23.336;2024-03-17T12:33:31;5.00;;;4.70;;
739;SDS011;354;42.694;23.336;2024-03-17T12:35:57;5.97;;;5.57;;
739;SDS011;354;42.694;23.336;2024-03-17T12:38:26;5.30;;;5.00;;
739;SDS011;354;42.694;23.336;2024-03-17T12:40:51;4.93;;;4.63;;
739;SDS011;354;42.694;23.336;2024-03-17T12:43:17;5.13;;;4.83;;
739;SDS011;354;42.694;23.336;2024-03-17T12:45:42;5.97;;;5.47;;
739;SDS011;354;42.694;23.336;2024-03-17T12:48:13;5.13;;;4.83;;
739;SDS011;354;42.694;23.336;2024-03-17T12:50:45;6.10;;;5.63;;
739;SDS011;354;42.694;23.336;2024-03-17T12:53:15;5.13;;;4.70;;
739;SDS011;354;42.694;23.336;2024-03-17T12:55:52;5.60;;;5.20;;
739;SDS011;354;42.694;23.336;2024-03-17T12:58:47;5.43;;;5.03;;
739;SDS011;354;42.694;23.336;2024-03-17T13:01:31;5.30;;;4.90;;
739;SDS011;354;42.694;23.336;2024-03-17T13:04:04;5.17;;;4.70;;
739;SDS011;354;42.694;23.336;2024-03-17T13:06:32;5.67;;;5.27;;
739;SDS011;354;42.694;23.336;2024-03-17T13:08:58;6.73;;;6.33;;
739;SDS011;354;42.694;23.336;2024-03-17T13:11:23;5.23;;;4.93;;
739;SDS011;354;42.694;23.336;2024-03-17T13:13:49;5.10;;;4.80;;
739;SDS011;354;42.694;23.336;2024-03-17T13:16:14;6.23;;;5.73;;
739;SDS011;354;42.694;23.336;2024-03-17T13:18:41;5.50;;;5.20;;
739;SDS011;354;42.694;23.336;2024-03-17T13:21:07;5.10;;;4.70;;
739;SDS011;354;42.694;23.336;2024-03-17T13:23:32;4.77;;;4.30;;
739;SDS011;354;42.694;23.336;2024-03-17T13:25:58;6.37;;;5.80;;
739;SDS011;354;42.694;23.336;2024-03-17T13:28:23;5.53;;;5.13;;
739;SDS011;354;42.694;23.336;2024-03-17T13:30:48;6.03;;;5.63;;
739;SDS011;354;42.694;23.336;2024-03-17T13:33:14;5.13;;;4.80;;
739;SDS011;354;42.694;23.336;2024-03-17T13:35:40;5.87;;;5.17;;
739;SDS011;354;42.694;23.336;2024-03-17T13:38:06;6.07;;;4.83;;
739;SDS011;354;42.694;23.336;2024-03-17T13:40:33;5.53;;;5.07;;
739;SDS011;354;42.694;23.336;2024-03-17T13:42:59;6.37;;;5.93;;
739;SDS011;354;42.694;23.336;2024-03-17T13:45:27;6.43;;;6.00;;
739;SDS011;354;42.694;23.336;2024-03-17T13:47:57;6.77;;;6.27;;
739;SDS011;354;42.694;23.336;2024-03-17T13:50:24;5.30;;;5.00;;
739;SDS011;354;42.694;23.336;2024-03-17T13:52:50;7.20;;;6.70;;
739;SDS011;354;42.694;23.336;2024-03-17T13:55:20;5.53;;;5.07;;
739;SDS011;354;42.694;23.336;2024-03-17T13:57:47;6.10;;;5.70;;
739;SDS011;354;42.694;23.336;2024-03-17T14:00:27;6.60;;;6.10;;
739;SDS011;354;42.694;23.336;2024-03-17T14:02:54;5.63;;;5.30;;
739;SDS011;354;42.694;23.336;2024-03-17T14:05:21;6.67;;;6.23;;
739;SDS011;354;42.694;23.336;2024-03-17T14:07:48;9.47;;;6.30;;
739;SDS011;354;42.694;23.336;2024-03-17T14:10:17;6.80;;;6.23;;
739;SDS011;354;42.694;23.336;2024-03-17T14:12:44;6.90;;;6.40;;
739;SDS011;354;42.694;23.336;2024-03-17T14:15:10;6.80;;;6.20;;
739;SDS011;354;42.694;23.336;2024-03-17T14:17:40;6.93;;;6.33;;
739;SDS011;354;42.694;23.336;2024-03-17T14:20:06;5.83;;;5.33;;
739;SDS011;354;42.694;23.336;2024-03-17T14:22:36;6.47;;;5.97;;
739;SDS011;354;42.694;23.336;2024-03-17T14:25:02;6.53;;;6.00;;
739;SDS011;354;42.694;23.336;2024-03-17T14:27:29;6.43;;;5.83;;
739;SDS011;354;42.694;23.336;2024-03-17T14:29:54;7.40;;;6.73;;
739;SDS011;354;42.694;23.336;2024-03-17T14:32:19;6.10;;;5.70;;
739;SDS011;354;42.694;23.336;2024-03-17T14:34:46;6.53;;;5.93;;
739;SDS011;354;42.694;23.336;2024-03-17T14:37:12;6.30;;;5.90;;
739;SDS011;354;42.694;23.336;2024-03-17T14:39:37;6.23;;;5.83;;
739;SDS011;354;42.694;23.336;2024-03-17T14:42:03;6.83;;;6.33;;
739;SDS011;354;42.694;23.336;2024-03-17T14:44:29;5.70;;;5.33;;
739;SDS011;354;42.694;23.336;2024-03-17T14:46:55;6.30;;;5.70;;
739;SDS011;354;42.694;23.336;2024-03-17T14:49:23;6.60;;;6.10;;
739;SDS011;354;42.694;23.336;2024-03-17T14:51:48;6.50;;;5.83;;
739;SDS011;354;42.694;23.336;2024-03-17T14:54:13;5.90;;;5.50;;
739;SDS011;354;42.694;23.336;2024-03-17T14:56:39;6.07;;;5.67;;
739;SDS011;354;42.694;23.336;2024-03-17T14:59:07;6.47;;;5.97;;
739;SDS011;354;42.694;23.336;2024-03-17T15:01:33;6.07;;;5.57;;
739;SDS011;354;42.694;23.336;2024-03-17T15:03:59;6.13;;;5.63;;
739;SDS011;354;42.694;23.336;2024-03-17T15:06:24;7.57;;;6.77;;
739;SDS011;354;42.694;23.336;2024-03-17T15:08:50;5.83;;;5.37;;
739;SDS011;354;42.694;23.336;2024-03-17T15:11:15;7.00;;;6.37;;
739;SDS011;354;42.694;23.336;2024-03-17T15:13:43;5.70;;;5.30;;
739;SDS011;354;42.694;23.336;2024-03-17T15:16:09;6.43;;;5.63;;
739;SDS011;354;42.694;23.336;2024-03-17T15:18:35;7.13;;;6.53;;
739;SDS011;354;42.694;23.336;2024-03-17T15:21:01;5.77;;;5.37;;
739;SDS011;354;42.694;23.336;2024-03-17T15:23:27;5.63;;;5.27;;
739;SDS011;354;42.694;23.336;2024-03-17T15:26:02;6.60;;;6.10;;
739;SDS011;354;42.694;23.336;2024-03-17T15:28:40;8.20;;;6.37;;
739;SDS011;354;42.694;23.336;2024-03-17T15:31:07;7.43;;;6.73;;
739;SDS011;354;42.694;23.336;2024-03-17T15:33:34;6.30;;;5.40;;
739;SDS011;354;42.694;23.336;2024-03-17T15:36:02;7.27;;;6.70;;
739;SDS011;354;42.694;23.336;2024-03-17T15:38:31;7.50;;;6.80;;
739;SDS011;354;42.694;23.336;2024-03-17T15:40:58;6.70;;;6.10;;
739;SDS011;354;42.694;23.336;2024-03-17T15:43:25;7.03;;;6.50;;
739;SDS011;354;42.694;23.336;2024-03-17T15:45:52;6.80;;;6.27;;
739;SDS011;354;42.694;23.336;2024-03-17T15:48:18;6.50;;;5.90;;
739;SDS011;354;42.694;23.336;2024-03-17T15:50:44;10.33;;;7.00;;
739;SDS011;354;42.694;23.336;2024-03-17T15:53:10;6.27;;;5.73;;
739;SDS011;354;42.694;23.336;2024-03-17T15:55:35;6.23;;;5.83;;
739;SDS011;354;42.694;23.336;2024-03-17T15:58:01;7.73;;;7.03;;
739;SDS011;354;42.694;23.336;2024-03-17T16:00:26;7.60;;;7.07;;
739;SDS011;354;42.694;23.336;2024-03-17T16:02:52;7.10;;;6.40;;
739;SDS011;354;42.694;23.336;2024-03-17T16:05:19;6.20;;;5.70;;
739;SDS011;354;42.694;23.336;2024-03-17T16:07:45;6.57;;;6.07;;